createdAt,value
2022-12-19T00:02:11.716Z,101874.06
2022-12-19T00:07:16.305Z,101848.69
2022-12-19T00:12:20.839Z,101856.56
2022-12-19T00:17:25.488Z,101864.34
2022-12-19T00:22:30.872Z,101861.06
2022-12-19T00:27:39.145Z,101873.97
2022-12-19T00:32:43.788Z,101901.34
2022-12-19T00:37:49.715Z,101898.06
2022-12-19T00:42:55.399Z,101885.38
2022-12-19T00:48:01.911Z,101891.44
2022-12-19T00:53:06.523Z,101893.25
2022-12-19T00:58:11.385Z,101908.69
2022-12-19T01:03:16.974Z,101916.47
2022-12-19T01:08:21.625Z,101904.69
2022-12-19T01:13:29.975Z,101912.47
2022-12-19T01:18:35.337Z,101956.06
2022-12-19T01:23:39.942Z,101944.22
2022-12-19T01:28:45.133Z,101930.59
2022-12-19T01:33:50.754Z,101932.34
2022-12-19T01:39:00.026Z,101940.00
2022-12-19T01:44:07.951Z,101940.00
2022-12-19T01:49:34.660Z,101934.88
2022-12-19T01:54:40.290Z,101937.38
2022-12-19T01:59:53.982Z,101946.69
2022-12-19T02:04:58.825Z,101943.19
2022-12-19T02:10:05.206Z,101943.03
2022-12-19T02:15:15.329Z,101953.19
2022-12-19T02:20:36.346Z,101946.97
2022-12-19T02:25:49.887Z,101944.25
2022-12-19T02:31:23.772Z,101950.91
2022-12-19T02:36:40.482Z,102000.44
2022-12-19T02:41:56.934Z,101953.03
2022-12-19T02:47:05.843Z,101939.97
2022-12-19T02:52:22.244Z,101936.31
2022-12-19T02:57:59.930Z,101919.75
2022-12-19T03:03:46.740Z,101912.69
2022-12-19T03:09:09.727Z,101910.81
2022-12-19T03:14:20.406Z,101897.78
2022-12-19T03:19:25.989Z,101893.34
2022-12-19T03:24:31.060Z,101872.56
2022-12-19T03:30:01.757Z,101861.28
2022-12-19T03:35:28.782Z,101842.31
2022-12-19T03:40:38.026Z,101843.91
2022-12-19T03:45:57.603Z,101824.84
2022-12-19T03:51:05.594Z,101816.91
2022-12-19T03:56:35.554Z,101819.28
2022-12-19T04:01:41.847Z,101801.81
2022-12-19T04:06:51.197Z,101791.16
2022-12-19T04:12:03.478Z,101784.78
2022-12-19T04:17:26.291Z,101786.16
2022-12-19T04:22:46.370Z,101775.44
2022-12-19T04:27:55.907Z,101763.13
2022-12-19T04:33:02.149Z,101754.16
2022-12-19T04:38:08.062Z,101754.81
2022-12-19T04:43:14.085Z,101729.53
2022-12-19T04:48:20.689Z,101725.00
2022-12-19T04:53:27.228Z,101717.09
2022-12-19T04:58:34.248Z,101759.03
2022-12-19T05:03:40.508Z,101713.03
2022-12-19T05:08:47.369Z,101709.28
2022-12-19T05:13:54.718Z,101728.88
2022-12-19T05:19:00.046Z,101681.19
2022-12-19T05:24:05.468Z,101686.16
2022-12-19T05:29:10.970Z,101677.19
2022-12-19T05:34:16.237Z,101675.28
2022-12-19T05:39:21.558Z,101678.63
2022-12-19T05:44:27.119Z,101670.81
2022-12-19T05:49:32.442Z,101650.75
2022-12-19T05:54:37.751Z,101657.47
2022-12-19T05:59:42.992Z,101648.44
2022-12-19T06:04:48.175Z,101681.94
2022-12-19T06:09:53.825Z,101641.16
2022-12-19T06:14:58.989Z,101634.97
2022-12-19T06:20:04.240Z,101630.53
2022-12-19T06:25:10.889Z,101625.28
2022-12-19T06:30:17.505Z,101651.09
2022-12-19T06:35:22.803Z,101628.44
2022-12-19T06:40:46.007Z,101636.91
2022-12-19T06:45:51.336Z,101632.59
2022-12-19T06:50:56.783Z,101659.53
2022-12-19T06:56:04.534Z,101630.31
2022-12-19T07:01:09.914Z,101627.78
2022-12-19T07:06:15.398Z,101630.53
2022-12-19T07:11:22.821Z,101642.69
2022-12-19T07:16:30.793Z,101615.00
2022-12-19T07:21:36.385Z,101622.69
2022-12-19T07:26:43.314Z,101618.56
2022-12-19T07:31:48.596Z,101621.22
2022-12-19T07:36:53.805Z,101614.47
2022-12-19T07:42:00.240Z,101620.84
2022-12-19T07:47:14.036Z,101684.16
2022-12-19T07:52:19.364Z,101622.31
2022-12-19T07:57:24.620Z,101617.41
2022-12-19T08:02:30.741Z,101632.38
2022-12-19T08:07:37.097Z,101617.19
2022-12-19T08:12:42.385Z,101635.63
2022-12-19T08:17:47.288Z,101627.28
2022-12-19T08:22:52.743Z,101677.59
2022-12-19T08:27:58.314Z,101673.44
2022-12-19T08:33:08.710Z,101661.69
2022-12-19T08:38:13.934Z,101666.38
2022-12-19T08:43:18.736Z,101638.94
2022-12-19T08:48:25.156Z,101646.97
2022-12-19T08:53:33.438Z,101642.91
2022-12-19T08:58:54.152Z,101641.56
2022-12-19T09:05:02.835Z,101651.31
2022-12-19T09:09:29.069Z,101649.03
2022-12-19T09:14:38.161Z,101651.91
2022-12-19T09:19:47.735Z,101672.00
2022-12-19T09:24:54.878Z,101669.72
2022-12-19T09:30:01.069Z,101657.91
2022-12-19T09:35:07.233Z,101678.75
2022-12-19T09:40:19.001Z,101664.31
2022-12-19T09:45:31.752Z,101665.38
2022-12-19T09:50:53.687Z,101673.22
2022-12-19T09:56:01.533Z,101684.56
2022-12-19T10:01:39.092Z,101680.41
2022-12-19T10:07:22.357Z,101688.34
2022-12-19T10:12:44.449Z,101697.91
2022-12-19T10:18:11.202Z,101702.34
2022-12-19T10:23:15.826Z,101714.50
2022-12-19T10:28:57.336Z,101715.50
2022-12-19T10:34:18.173Z,101720.81
2022-12-19T10:39:35.229Z,101726.03
2022-12-19T10:44:43.017Z,101721.00
2022-12-19T10:49:47.652Z,101734.75
2022-12-19T10:54:54.055Z,101743.41
2022-12-19T11:00:19.282Z,101744.31
2022-12-19T11:05:58.100Z,101754.72
2022-12-19T11:12:03.944Z,101747.03
2022-12-19T11:24:56.849Z,101747.88
2022-12-19T11:29:31.805Z,101743.66
2022-12-19T11:29:54.827Z,101786.56
2022-12-19T11:33:20.547Z,101741.94
2022-12-19T11:38:48.023Z,101742.91
2022-12-19T11:44:00.127Z,101762.75
2022-12-19T11:49:14.174Z,101754.19
2022-12-19T11:54:22.804Z,101754.25
2022-12-19T11:59:37.487Z,101758.59
2022-12-19T12:05:25.688Z,101769.03
2022-12-19T12:17:13.525Z,101820.78
2022-12-19T12:30:32.613Z,101769.53
2022-12-19T12:31:14.249Z,101767.16
2022-12-19T12:31:53.067Z,101779.34
2022-12-19T12:35:48.802Z,101782.97
2022-12-19T12:39:33.648Z,101784.00
2022-12-19T12:44:45.627Z,101780.72
2022-12-19T12:50:06.765Z,101781.69
2022-12-19T12:55:27.779Z,101780.03
2022-12-19T13:00:36.122Z,101791.28
2022-12-19T13:06:13.125Z,101791.38
2022-12-19T13:11:40.011Z,101784.53
2022-12-19T13:16:47.951Z,101785.44
2022-12-19T13:22:13.029Z,101790.59
2022-12-19T13:27:23.990Z,101790.66
2022-12-19T13:32:35.921Z,101789.84
2022-12-19T13:39:49.938Z,101781.34
2022-12-19T13:43:39.432Z,101778.84
2022-12-19T13:48:59.295Z,101775.44
2022-12-19T13:54:04.569Z,101793.44
2022-12-19T13:59:11.399Z,101814.88
2022-12-19T14:04:28.993Z,101786.63
2022-12-19T14:11:27.794Z,101821.75
2022-12-19T14:15:26.964Z,101788.44
2022-12-19T14:22:11.742Z,101781.59
2022-12-19T14:28:19.132Z,101781.63
2022-12-19T14:31:27.125Z,101785.88
2022-12-19T14:36:34.999Z,101787.59
2022-12-19T14:42:03.017Z,101795.31
2022-12-19T14:54:04.030Z,101813.28
2022-12-19T14:54:52.425Z,101776.44
2022-12-19T14:58:54.699Z,101777.28
2022-12-19T15:04:51.240Z,101779.91
2022-12-19T15:10:58.089Z,101779.94
2022-12-19T15:16:04.391Z,101770.56
2022-12-19T15:21:17.787Z,101771.44
2022-12-19T15:26:34.392Z,101771.44
2022-12-19T15:31:48.278Z,101852.69
2022-12-19T15:36:55.277Z,101773.97
2022-12-19T15:42:02.951Z,101759.38
2022-12-19T15:47:19.842Z,101765.28
2022-12-19T15:52:28.691Z,101768.63
2022-12-19T15:58:11.189Z,101755.75
2022-12-19T16:03:25.416Z,101747.22
2022-12-19T16:08:31.386Z,101758.44
2022-12-19T16:13:38.059Z,101760.22
2022-12-19T16:18:44.020Z,101768.81
2022-12-19T16:23:49.935Z,101775.66
2022-12-19T16:28:55.363Z,101752.63
2022-12-19T16:34:00.927Z,101748.38
2022-12-19T16:39:06.071Z,101758.69
2022-12-19T16:44:21.166Z,101739.88
2022-12-19T16:49:26.319Z,101751.81
2022-12-19T16:54:31.374Z,101746.69
2022-12-19T16:59:41.291Z,101746.69
2022-12-19T17:04:52.088Z,101760.34
2022-12-19T17:09:58.975Z,101762.03
2022-12-19T17:15:05.441Z,101756.06
2022-12-19T17:20:18.783Z,101768.88
2022-12-19T17:25:29.643Z,101781.78
2022-12-19T17:30:34.362Z,101782.69
2022-12-19T17:35:38.536Z,101753.66
2022-12-19T17:40:43.337Z,101744.31
2022-12-19T17:45:49.170Z,101739.19
2022-12-19T17:50:55.700Z,101787.94
2022-12-19T17:56:01.067Z,101742.63
2022-12-19T18:01:05.066Z,101746.91
2022-12-19T18:06:12.481Z,101740.94
2022-12-19T18:11:26.555Z,101736.63
2022-12-19T18:16:33.241Z,101746.03
2022-12-19T18:21:38.012Z,101750.28
2022-12-19T18:26:42.727Z,101734.06
2022-12-19T18:31:50.840Z,101740.91
2022-12-19T18:36:55.532Z,101739.22
2022-12-19T18:42:00.281Z,101732.41
2022-12-19T18:47:04.879Z,101735.84
2022-12-19T18:52:13.008Z,101732.53
2022-12-19T18:57:18.515Z,101707.78
2022-12-19T19:02:28.832Z,101711.22
2022-12-19T19:07:35.575Z,101719.72
2022-12-19T19:12:42.013Z,101694.16
2022-12-19T19:17:54.134Z,101698.44
2022-12-19T19:23:01.415Z,101716.34
2022-12-19T19:28:09.017Z,101706.09
2022-12-19T19:33:19.615Z,101691.63
2022-12-19T19:38:24.969Z,101680.50
2022-12-19T19:43:35.552Z,101686.50
2022-12-19T19:48:44.680Z,101678.81
2022-12-19T19:53:50.244Z,101719.75
2022-12-19T19:58:56.379Z,101726.63
2022-12-19T20:04:00.965Z,101696.72
2022-12-19T20:09:06.229Z,101687.38
2022-12-19T20:14:10.765Z,101637.88
2022-12-19T20:19:16.835Z,101633.63
2022-12-19T20:24:21.465Z,101667.75
2022-12-19T20:29:26.757Z,101623.41
2022-12-19T20:34:31.369Z,101628.50
2022-12-19T20:39:36.102Z,101609.75
2022-12-19T20:44:40.787Z,101625.09
2022-12-19T20:49:45.865Z,101620.84
2022-12-19T20:54:50.401Z,101613.19
2022-12-19T20:59:54.958Z,101604.63
2022-12-19T21:04:59.570Z,101608.03
2022-12-19T21:10:04.254Z,101608.91
2022-12-19T21:15:11.021Z,101610.63
2022-12-19T21:20:16.904Z,101600.38
2022-12-19T21:25:22.236Z,101615.75
2022-12-19T21:30:26.829Z,101598.69
2022-12-19T21:35:31.780Z,101596.09
2022-12-19T21:40:37.958Z,101580.75
2022-12-19T21:45:42.882Z,101578.22
2022-12-19T21:50:49.226Z,101590.16
2022-12-19T21:55:53.730Z,101596.13
2022-12-19T22:01:08.306Z,101598.69
2022-12-19T22:06:28.339Z,101607.22
2022-12-19T22:11:33.606Z,101644.72
2022-12-19T22:16:38.346Z,101607.19
2022-12-19T22:21:43.060Z,101637.03
2022-12-19T22:26:47.418Z,101588.41
2022-12-19T22:31:52.078Z,101600.34
2022-12-19T22:36:56.217Z,101597.78
2022-12-19T22:42:01.781Z,101598.66
2022-12-19T22:47:07.196Z,101597.81
2022-12-19T22:52:11.799Z,101582.44
2022-12-19T22:57:16.757Z,101594.41
2022-12-19T23:02:21.596Z,101573.09
2022-12-19T23:07:27.505Z,101567.94
2022-12-19T23:12:32.081Z,101573.91
2022-12-19T23:17:37.725Z,101585.00
2022-12-19T23:22:43.379Z,101599.50
2022-12-19T23:27:49.462Z,101596.09
2022-12-19T23:32:54.047Z,101609.75
2022-12-19T23:37:58.681Z,101612.28
2022-12-19T23:43:03.311Z,101646.38
2022-12-19T23:48:09.667Z,101615.63
2022-12-19T23:53:14.270Z,101623.31
2022-12-19T23:58:24.220Z,101676.22
